Codo, Brazil
Current Conditions -  °F | °C
As of 4:00 PM on Saturday 20 Dec 2014 (Local Time) from SBTE Reporting Station
Few Clouds Few Clouds  
Wind Chill: 95°   Ceiling: Unl
Heat Index: 98°   Visibility: 6mi
Dew Point: 66°   Wind: 3mph
Humidity: 39%   Direction: 80°E
Pressure: 29.77"   Gusts: NA
Location:  4.46°S, 43.89°W
Report Text: SBTE 201900Z 08003KT 9999 FEW030 35/19 Q1008
Loading
Personal Weather Stations






























Interactive Weather Map New forecast layout! Learn more

10-Day Weather Forecast

Advertisements
Track Severe Weather on mobile